Terminal Aerodrome Forecast
Issued by NWS

Home | Current Version | Previous Version | Graphics & Text | Print | Product List | Glossary On
Versions: 1 2 3 4 5 6 7 8 9 10 11 12 13 14 15 16 17 18 19 20 21 22 23 24 25 26 27 28 29
222
FTUS43 KGRB 210914 AAA
TAFRHI
TAF AMD
KRHI 210914Z 2109/2206 26012G20KT P6SM OVC008
      TEMPO 2109/2113 BKN012
     FM211300 25006KT P6SM BKN012
     FM211500 26007KT P6SM FEW015 SCT250
     FM212200 21006KT P6SM SCT250=

USA.gov is the U.S. government's official web portal to all federal, state and local government web resources and services.